createdAt,value
2023-02-19T00:06:39.196Z,9.50
2023-02-19T00:16:44.800Z,9.50
2023-02-19T00:26:49.365Z,8.80
2023-02-19T00:36:54.392Z,10.00
2023-02-19T00:46:58.218Z,9.20
2023-02-19T00:57:06.680Z,9.40
2023-02-19T01:07:17.725Z,7.60
2023-02-19T01:17:23.118Z,8.60
2023-02-19T01:27:26.737Z,7.70
2023-02-19T01:37:30.554Z,8.80
2023-02-19T01:47:34.331Z,7.60
2023-02-19T01:57:44.426Z,7.60
2023-02-19T02:08:09.232Z,6.40
2023-02-19T02:19:05.492Z,7.20
2023-02-19T02:29:36.146Z,8.00
2023-02-19T02:39:44.113Z,7.20
2023-02-19T02:50:05.384Z,6.60
2023-02-19T03:00:12.162Z,7.00
2023-02-19T03:10:24.433Z,7.00
2023-02-19T03:20:33.369Z,6.20
2023-02-19T03:30:41.898Z,6.10
2023-02-19T03:41:18.170Z,5.50
2023-02-19T03:52:06.539Z,5.30
2023-02-19T04:02:20.743Z,6.60
2023-02-19T04:12:26.092Z,5.50
2023-02-19T04:22:34.216Z,6.90
2023-02-19T04:32:37.724Z,5.80
2023-02-19T04:42:41.196Z,5.90
2023-02-19T04:52:44.791Z,5.80
2023-02-19T05:02:50.118Z,7.00
2023-02-19T05:12:57.770Z,5.40
2023-02-19T05:23:03.839Z,5.40
2023-02-19T05:33:07.501Z,5.70
2023-02-19T05:43:13.525Z,5.20
2023-02-19T05:53:17.325Z,5.50
2023-02-19T06:03:21.052Z,5.60
2023-02-19T06:13:24.861Z,6.10
2023-02-19T06:23:31.125Z,6.30
2023-02-19T06:33:36.260Z,6.50
2023-02-19T06:43:40.792Z,8.00
2023-02-19T06:53:44.477Z,6.30
2023-02-19T07:03:48.227Z,6.90
2023-02-19T07:13:56.882Z,6.00
2023-02-19T07:24:00.523Z,5.80
2023-02-19T07:34:04.221Z,6.10
2023-02-19T07:44:13.801Z,7.10
2023-02-19T07:54:18.846Z,5.60
2023-02-19T08:04:25.116Z,7.00
2023-02-19T08:14:28.988Z,7.00
2023-02-19T08:24:36.074Z,5.40
2023-02-19T08:34:39.884Z,5.20
2023-02-19T08:44:43.427Z,4.20
2023-02-19T08:54:47.067Z,5.70
2023-02-19T09:04:51.171Z,5.70
2023-02-19T09:14:56.478Z,4.50
2023-02-19T09:25:00.654Z,6.60
2023-02-19T09:35:04.524Z,5.50
2023-02-19T09:45:12.922Z,4.10
2023-02-19T09:55:37.163Z,4.10
2023-02-19T10:05:42.056Z,3.70
2023-02-19T10:16:07.507Z,3.30
2023-02-19T10:26:11.203Z,4.30
2023-02-19T10:36:24.538Z,5.10
2023-02-19T10:46:36.447Z,3.50
2023-02-19T10:56:43.213Z,3.70
2023-02-19T11:06:47.492Z,2.70
2023-02-19T11:16:58.479Z,2.60
2023-02-19T11:27:06.154Z,1.80
2023-02-19T11:37:23.350Z,2.10
2023-02-19T11:47:55.357Z,2.80
2023-02-19T11:58:20.839Z,1.50
2023-02-19T12:08:44.402Z,5.20
2023-02-19T12:19:16.735Z,2.50
2023-02-19T12:29:39.069Z,1.70
2023-02-19T12:40:23.116Z,1.70
2023-02-19T12:50:29.833Z,1.50
2023-02-19T13:00:37.422Z,1.20
2023-02-19T13:10:53.168Z,2.00
2023-02-19T13:20:59.747Z,1.90
2023-02-19T13:31:17.461Z,1.00
2023-02-19T13:41:40.634Z,1.00
2023-02-19T13:52:26.223Z,0.80
2023-02-19T14:02:34.415Z,0.90
2023-02-19T14:12:40.828Z,0.90
2023-02-19T14:22:47.871Z,1.20
2023-02-19T14:33:02.855Z,2.80
2023-02-19T14:43:20.213Z,1.60
2023-02-19T14:53:25.855Z,1.90
2023-02-19T15:03:38.322Z,1.50
2023-02-19T15:13:53.335Z,2.00
2023-02-19T15:24:01.032Z,1.20
2023-02-19T15:34:16.706Z,1.30
2023-02-19T15:44:37.440Z,1.20
2023-02-19T15:55:03.146Z,1.80
2023-02-19T16:05:25.647Z,2.20
2023-02-19T16:15:31.933Z,1.80
2023-02-19T16:25:44.713Z,2.50
2023-02-19T16:35:50.185Z,3.70
2023-02-19T16:45:57.129Z,2.90
2023-02-19T16:56:01.119Z,3.30
2023-02-19T17:06:07.964Z,2.90
2023-02-19T17:16:20.510Z,2.30
2023-02-19T17:26:32.490Z,3.50
2023-02-19T17:36:38.253Z,2.60
2023-02-19T17:46:43.112Z,3.10
2023-02-19T17:56:47.874Z,2.70
2023-02-19T18:06:54.200Z,2.50
2023-02-19T18:16:58.083Z,4.70
2023-02-19T18:27:01.694Z,4.30
2023-02-19T18:37:07.120Z,5.10
2023-02-19T18:47:11.946Z,5.00
2023-02-19T18:57:15.990Z,4.70
2023-02-19T19:07:23.258Z,4.10
2023-02-19T19:17:26.846Z,4.20
2023-02-19T19:27:30.581Z,5.20
2023-02-19T19:37:36.820Z,9.20
2023-02-19T19:47:41.897Z,4.10
2023-02-19T19:57:45.512Z,4.60
2023-02-19T20:07:52.093Z,4.10
2023-02-19T20:17:55.945Z,4.90
2023-02-19T20:27:59.948Z,4.30
2023-02-19T20:38:03.603Z,6.20
2023-02-19T20:48:07.216Z,7.10
2023-02-19T20:58:10.911Z,5.60
2023-02-19T21:08:19.118Z,5.60
2023-02-19T21:18:22.766Z,4.90
2023-02-19T21:28:26.321Z,6.00
2023-02-19T21:38:31.428Z,5.80
2023-02-19T21:48:46.741Z,6.70
2023-02-19T21:59:31.319Z,6.90
2023-02-19T22:09:34.942Z,7.00
2023-02-19T22:19:38.757Z,6.80
2023-02-19T22:29:42.371Z,6.60
2023-02-19T22:39:46.607Z,6.50
2023-02-19T22:49:51.758Z,4.70
2023-02-19T22:59:55.303Z,4.00
2023-02-19T23:10:03.063Z,5.20
2023-02-19T23:20:08.997Z,4.80
2023-02-19T23:30:13.606Z,4.50
2023-02-19T23:40:19.850Z,5.30
2023-02-19T23:50:23.527Z,6.40
